Bayview, Georgia
Current Conditions -  °F | °C
As of 7:58 AM on Thursday 30 Oct 2014 (Local Time) from KLHW Reporting Station
Overcast Overcast  
Wind Chill: 64°   Ceiling: 8500
Heat Index: 64°   Visibility: 10mi
Dew Point: 60°   Wind: 3mph
Humidity: 88%   Direction: 320°NW
Pressure: 29.97"   Gusts: NA
Location:  31.755°N, 81.7451°W
Report Text: KLHW 301158Z AUTO 32003KT 10SM BKN085 OVC110 18/16 A2997 RMK AO2 SLP152 T01760156 10194 20174 52009
Loading
Personal Weather Stations






























Interactive Weather Map
Tropical Storm Tracking
New forecast layout! Learn more

10-Day Weather Forecast

Advertisements
Track Severe Weather on mobile